sensor_id;sensor_type;location;lat;lon;timestamp;temperature;humidity
8595;DHT22;4335;48.860;9.198;2023-04-24T00:01:11;12.10;99.90
8595;DHT22;4335;48.860;9.198;2023-04-24T00:03:41;12.00;99.90
8595;DHT22;4335;48.860;9.198;2023-04-24T00:06:08;12.10;99.90
8595;DHT22;4335;48.860;9.198;2023-04-24T00:08:35;12.10;99.90
8595;DHT22;4335;48.860;9.198;2023-04-24T00:11:02;12.20;99.90
8595;DHT22;4335;48.860;9.198;2023-04-24T00:13:38;12.20;99.90
8595;DHT22;4335;48.860;9.198;2023-04-24T00:16:08;12.20;99.90
8595;DHT22;4335;48.860;9.198;2023-04-24T00:18:35;12.30;99.90
8595;DHT22;4335;48.860;9.198;2023-04-24T00:21:01;12.30;99.90
8595;DHT22;4335;48.860;9.198;2023-04-24T00:23:28;12.30;99.90
8595;DHT22;4335;48.860;9.198;2023-04-24T00:25:56;12.30;99.90
8595;DHT22;4335;48.860;9.198;2023-04-24T00:28:22;12.30;99.90
8595;DHT22;4335;48.860;9.198;2023-04-24T00:30:49;12.40;99.90
8595;DHT22;4335;48.860;9.198;2023-04-24T00:33:16;12.40;99.90
8595;DHT22;4335;48.860;9.198;2023-04-24T00:35:45;12.40;99.90
8595;DHT22;4335;48.860;9.198;2023-04-24T00:38:12;12.40;99.90
8595;DHT22;4335;48.860;9.198;2023-04-24T00:40:40;12.40;99.90
8595;DHT22;4335;48.860;9.198;2023-04-24T00:43:10;12.50;99.90
8595;DHT22;4335;48.860;9.198;2023-04-24T00:45:37;12.40;99.90
8595;DHT22;4335;48.860;9.198;2023-04-24T00:48:07;12.40;99.90
8595;DHT22;4335;48.860;9.198;2023-04-24T00:50:36;12.50;99.90
8595;DHT22;4335;48.860;9.198;2023-04-24T00:53:03;12.50;99.90
8595;DHT22;4335;48.860;9.198;2023-04-24T00:55:32;12.50;99.90
8595;DHT22;4335;48.860;9.198;2023-04-24T00:57:59;12.40;99.90
8595;DHT22;4335;48.860;9.198;2023-04-24T01:00:30;12.50;99.90
8595;DHT22;4335;48.860;9.198;2023-04-24T01:02:58;12.50;99.90
8595;DHT22;4335;48.860;9.198;2023-04-24T01:05:26;12.50;99.90
8595;DHT22;4335;48.860;9.198;2023-04-24T01:07:53;12.50;99.90
8595;DHT22;4335;48.860;9.198;2023-04-24T01:10:23;12.50;99.90
8595;DHT22;4335;48.860;9.198;2023-04-24T01:12:56;12.50;99.90
8595;DHT22;4335;48.860;9.198;2023-04-24T01:15:24;12.50;99.90
8595;DHT22;4335;48.860;9.198;2023-04-24T01:17:51;12.50;99.90
8595;DHT22;4335;48.860;9.198;2023-04-24T01:20:18;12.50;99.90
8595;DHT22;4335;48.860;9.198;2023-04-24T01:22:47;12.50;99.90
8595;DHT22;4335;48.860;9.198;2023-04-24T01:25:14;12.50;99.90
8595;DHT22;4335;48.860;9.198;2023-04-24T01:27:41;12.40;99.90
8595;DHT22;4335;48.860;9.198;2023-04-24T01:30:11;12.40;99.90
8595;DHT22;4335;48.860;9.198;2023-04-24T01:32:39;12.40;99.90
8595;DHT22;4335;48.860;9.198;2023-04-24T01:35:07;12.40;99.90
8595;DHT22;4335;48.860;9.198;2023-04-24T01:37:37;12.40;99.90
8595;DHT22;4335;48.860;9.198;2023-04-24T01:40:06;12.40;99.90
8595;DHT22;4335;48.860;9.198;2023-04-24T01:42:33;12.40;99.90
8595;DHT22;4335;48.860;9.198;2023-04-24T01:45:01;12.30;99.90
8595;DHT22;4335;48.860;9.198;2023-04-24T01:47:31;12.30;99.90
8595;DHT22;4335;48.860;9.198;2023-04-24T01:49:58;12.30;99.90
8595;DHT22;4335;48.860;9.198;2023-04-24T01:52:28;12.30;99.90
8595;DHT22;4335;48.860;9.198;2023-04-24T01:54:59;12.30;99.90
8595;DHT22;4335;48.860;9.198;2023-04-24T01:57:29;12.20;99.90
8595;DHT22;4335;48.860;9.198;2023-04-24T01:59:56;12.20;99.90
8595;DHT22;4335;48.860;9.198;2023-04-24T02:02:23;12.20;99.90
8595;DHT22;4335;48.860;9.198;2023-04-24T02:04:53;12.20;99.90
8595;DHT22;4335;48.860;9.198;2023-04-24T02:07:19;12.20;99.90
8595;DHT22;4335;48.860;9.198;2023-04-24T02:09:46;12.10;99.90
8595;DHT22;4335;48.860;9.198;2023-04-24T02:12:13;12.10;99.90
8595;DHT22;4335;48.860;9.198;2023-04-24T02:14:48;12.10;99.90
8595;DHT22;4335;48.860;9.198;2023-04-24T02:17:20;12.00;99.90
8595;DHT22;4335;48.860;9.198;2023-04-24T02:19:47;12.00;99.90
8595;DHT22;4335;48.860;9.198;2023-04-24T02:22:20;12.00;99.90
8595;DHT22;4335;48.860;9.198;2023-04-24T02:24:47;11.90;99.90
8595;DHT22;4335;48.860;9.198;2023-04-24T02:27:19;11.90;99.90
8595;DHT22;4335;48.860;9.198;2023-04-24T02:29:49;11.90;99.90
8595;DHT22;4335;48.860;9.198;2023-04-24T02:32:16;12.00;99.90
8595;DHT22;4335;48.860;9.198;2023-04-24T02:34:43;12.00;99.90
8595;DHT22;4335;48.860;9.198;2023-04-24T02:37:12;12.00;99.90
8595;DHT22;4335;48.860;9.198;2023-04-24T02:39:42;11.90;99.90
8595;DHT22;4335;48.860;9.198;2023-04-24T02:42:09;12.00;99.90
8595;DHT22;4335;48.860;9.198;2023-04-24T02:44:38;12.00;99.90
8595;DHT22;4335;48.860;9.198;2023-04-24T02:47:09;12.10;99.90
8595;DHT22;4335;48.860;9.198;2023-04-24T02:49:36;12.20;99.90
8595;DHT22;4335;48.860;9.198;2023-04-24T02:52:02;12.20;99.90
8595;DHT22;4335;48.860;9.198;2023-04-24T02:54:32;12.20;99.90
8595;DHT22;4335;48.860;9.198;2023-04-24T02:57:01;12.20;99.90
8595;DHT22;4335;48.860;9.198;2023-04-24T02:59:34;12.20;99.90
8595;DHT22;4335;48.860;9.198;2023-04-24T03:02:01;12.20;99.90
8595;DHT22;4335;48.860;9.198;2023-04-24T03:04:31;12.10;99.90
8595;DHT22;4335;48.860;9.198;2023-04-24T03:07:01;12.10;99.90
8595;DHT22;4335;48.860;9.198;2023-04-24T03:09:30;12.00;99.90
8595;DHT22;4335;48.860;9.198;2023-04-24T03:11:57;12.00;99.90
8595;DHT22;4335;48.860;9.198;2023-04-24T03:14:27;12.00;99.90
8595;DHT22;4335;48.860;9.198;2023-04-24T03:16:58;11.90;99.90
8595;DHT22;4335;48.860;9.198;2023-04-24T03:19:34;11.90;99.90
8595;DHT22;4335;48.860;9.198;2023-04-24T03:22:04;11.90;99.90
8595;DHT22;4335;48.860;9.198;2023-04-24T03:24:33;11.90;99.90
8595;DHT22;4335;48.860;9.198;2023-04-24T03:27:00;11.80;99.90
8595;DHT22;4335;48.860;9.198;2023-04-24T03:29:27;11.80;99.90
8595;DHT22;4335;48.860;9.198;2023-04-24T03:31:55;11.80;99.90
8595;DHT22;4335;48.860;9.198;2023-04-24T03:34:22;11.70;99.90
8595;DHT22;4335;48.860;9.198;2023-04-24T03:36:58;11.70;99.90
8595;DHT22;4335;48.860;9.198;2023-04-24T03:39:24;11.60;99.90
8595;DHT22;4335;48.860;9.198;2023-04-24T03:41:54;11.60;99.90
8595;DHT22;4335;48.860;9.198;2023-04-24T03:44:27;11.60;99.90
8595;DHT22;4335;48.860;9.198;2023-04-24T03:47:00;11.50;99.90
8595;DHT22;4335;48.860;9.198;2023-04-24T03:49:36;11.40;99.90
8595;DHT22;4335;48.860;9.198;2023-04-24T03:52:03;11.40;99.90
8595;DHT22;4335;48.860;9.198;2023-04-24T03:54:30;11.30;99.90
8595;DHT22;4335;48.860;9.198;2023-04-24T03:56:56;11.30;99.90
8595;DHT22;4335;48.860;9.198;2023-04-24T03:59:23;11.30;99.90
8595;DHT22;4335;48.860;9.198;2023-04-24T04:01:56;11.30;99.90
8595;DHT22;4335;48.860;9.198;2023-04-24T04:04:22;11.30;99.90
8595;DHT22;4335;48.860;9.198;2023-04-24T04:06:55;11.20;99.90
8595;DHT22;4335;48.860;9.198;2023-04-24T04:09:23;11.20;99.90
8595;DHT22;4335;48.860;9.198;2023-04-24T04:11:55;11.10;99.90
8595;DHT22;4335;48.860;9.198;2023-04-24T04:14:22;11.10;99.90
8595;DHT22;4335;48.860;9.198;2023-04-24T04:16:49;11.20;99.90
8595;DHT22;4335;48.860;9.198;2023-04-24T04:19:19;11.30;99.90
8595;DHT22;4335;48.860;9.198;2023-04-24T04:21:45;11.30;99.90
8595;DHT22;4335;48.860;9.198;2023-04-24T04:24:19;11.30;99.90
8595;DHT22;4335;48.860;9.198;2023-04-24T04:26:51;11.40;99.90
8595;DHT22;4335;48.860;9.198;2023-04-24T04:29:18;11.50;99.90
8595;DHT22;4335;48.860;9.198;2023-04-24T04:31:51;11.50;99.90
8595;DHT22;4335;48.860;9.198;2023-04-24T04:34:18;11.30;99.90
8595;DHT22;4335;48.860;9.198;2023-04-24T04:36:45;11.30;99.90
8595;DHT22;4335;48.860;9.198;2023-04-24T04:39:21;11.20;99.90
8595;DHT22;4335;48.860;9.198;2023-04-24T04:41:48;11.20;99.90
8595;DHT22;4335;48.860;9.198;2023-04-24T04:44:19;11.20;99.90
8595;DHT22;4335;48.860;9.198;2023-04-24T04:46:51;11.20;99.90
8595;DHT22;4335;48.860;9.198;2023-04-24T04:49:24;11.20;99.90
8595;DHT22;4335;48.860;9.198;2023-04-24T04:51:56;11.20;99.90
8595;DHT22;4335;48.860;9.198;2023-04-24T04:54:23;11.20;99.90
8595;DHT22;4335;48.860;9.198;2023-04-24T04:56:51;11.30;99.90
8595;DHT22;4335;48.860;9.198;2023-04-24T04:59:21;11.30;99.90
8595;DHT22;4335;48.860;9.198;2023-04-24T05:01:48;11.30;99.90
8595;DHT22;4335;48.860;9.198;2023-04-24T05:04:14;11.30;99.90
8595;DHT22;4335;48.860;9.198;2023-04-24T05:06:41;11.20;99.90
8595;DHT22;4335;48.860;9.198;2023-04-24T05:09:11;11.20;99.90
8595;DHT22;4335;48.860;9.198;2023-04-24T05:11:37;11.30;99.90
8595;DHT22;4335;48.860;9.198;2023-04-24T05:14:05;11.30;99.90
8595;DHT22;4335;48.860;9.198;2023-04-24T05:16:31;11.30;99.90
8595;DHT22;4335;48.860;9.198;2023-04-24T05:18:58;11.40;99.90
8595;DHT22;4335;48.860;9.198;2023-04-24T05:21:25;11.30;99.90
8595;DHT22;4335;48.860;9.198;2023-04-24T05:23:58;11.40;99.90
8595;DHT22;4335;48.860;9.198;2023-04-24T05:26:37;11.40;99.90
8595;DHT22;4335;48.860;9.198;2023-04-24T05:29:14;11.40;99.90
8595;DHT22;4335;48.860;9.198;2023-04-24T05:31:41;11.50;99.90
8595;DHT22;4335;48.860;9.198;2023-04-24T05:34:08;11.40;99.90
8595;DHT22;4335;48.860;9.198;2023-04-24T05:36:37;11.50;99.90
8595;DHT22;4335;48.860;9.198;2023-04-24T05:39:04;11.50;99.90
8595;DHT22;4335;48.860;9.198;2023-04-24T05:41:31;11.60;99.90
8595;DHT22;4335;48.860;9.198;2023-04-24T05:43:57;11.60;99.90
8595;DHT22;4335;48.860;9.198;2023-04-24T05:46:25;11.60;99.90
8595;DHT22;4335;48.860;9.198;2023-04-24T05:48:52;11.60;99.90
8595;DHT22;4335;48.860;9.198;2023-04-24T05:51:23;11.60;99.90
8595;DHT22;4335;48.860;9.198;2023-04-24T05:53:55;11.60;99.90
8595;DHT22;4335;48.860;9.198;2023-04-24T05:56:22;11.60;99.90
8595;DHT22;4335;48.860;9.198;2023-04-24T05:58:49;11.80;99.90
8595;DHT22;4335;48.860;9.198;2023-04-24T06:01:19;11.90;99.90
8595;DHT22;4335;48.860;9.198;2023-04-24T06:03:46;12.00;99.90
8595;DHT22;4335;48.860;9.198;2023-04-24T06:06:19;12.20;99.90
8595;DHT22;4335;48.860;9.198;2023-04-24T06:08:46;12.30;99.90
8595;DHT22;4335;48.860;9.198;2023-04-24T06:11:14;12.40;99.90
8595;DHT22;4335;48.860;9.198;2023-04-24T06:13:41;12.40;99.90
8595;DHT22;4335;48.860;9.198;2023-04-24T06:16:08;12.40;99.90
8595;DHT22;4335;48.860;9.198;2023-04-24T06:18:42;12.30;99.90
8595;DHT22;4335;48.860;9.198;2023-04-24T06:21:10;12.30;99.90
8595;DHT22;4335;48.860;9.198;2023-04-24T06:23:42;12.70;99.90
8595;DHT22;4335;48.860;9.198;2023-04-24T06:26:09;13.40;99.90
8595;DHT22;4335;48.860;9.198;2023-04-24T06:28:39;14.70;99.90
8595;DHT22;4335;48.860;9.198;2023-04-24T06:31:05;16.20;99.90
8595;DHT22;4335;48.860;9.198;2023-04-24T06:33:32;17.10;99.90
8595;DHT22;4335;48.860;9.198;2023-04-24T06:36:02;17.00;99.90
8595;DHT22;4335;48.860;9.198;2023-04-24T06:38:33;17.00;99.90
8595;DHT22;4335;48.860;9.198;2023-04-24T06:41:00;16.70;99.90
8595;DHT22;4335;48.860;9.198;2023-04-24T06:43:27;16.40;99.90
8595;DHT22;4335;48.860;9.198;2023-04-24T06:45:59;15.90;99.90
8595;DHT22;4335;48.860;9.198;2023-04-24T06:48:26;15.40;99.90
8595;DHT22;4335;48.860;9.198;2023-04-24T06:50:59;14.80;99.90
8595;DHT22;4335;48.860;9.198;2023-04-24T06:53:28;14.40;99.90
8595;DHT22;4335;48.860;9.198;2023-04-24T06:56:03;14.00;99.90
8595;DHT22;4335;48.860;9.198;2023-04-24T06:58:33;14.50;99.90
8595;DHT22;4335;48.860;9.198;2023-04-24T07:00:59;15.40;99.90
8595;DHT22;4335;48.860;9.198;2023-04-24T07:03:26;16.60;99.90
8595;DHT22;4335;48.860;9.198;2023-04-24T07:05:56;17.60;99.90
8595;DHT22;4335;48.860;9.198;2023-04-24T07:08:23;18.00;99.90
8595;DHT22;4335;48.860;9.198;2023-04-24T07:10:51;18.60;99.90
8595;DHT22;4335;48.860;9.198;2023-04-24T07:13:22;18.80;99.90
8595;DHT22;4335;48.860;9.198;2023-04-24T07:15:51;18.70;99.90
8595;DHT22;4335;48.860;9.198;2023-04-24T07:18:21;18.70;99.90
8595;DHT22;4335;48.860;9.198;2023-04-24T07:20:47;18.40;99.90
8595;DHT22;4335;48.860;9.198;2023-04-24T07:23:24;17.40;99.90
8595;DHT22;4335;48.860;9.198;2023-04-24T07:25:54;16.60;99.90
8595;DHT22;4335;48.860;9.198;2023-04-24T07:28:24;16.10;99.90
8595;DHT22;4335;48.860;9.198;2023-04-24T07:31:03;15.30;99.90
8595;DHT22;4335;48.860;9.198;2023-04-24T07:33:33;14.80;99.90
8595;DHT22;4335;48.860;9.198;2023-04-24T07:36:00;14.90;99.90
8595;DHT22;4335;48.860;9.198;2023-04-24T07:38:26;15.70;99.90
8595;DHT22;4335;48.860;9.198;2023-04-24T07:40:53;16.90;99.90
8595;DHT22;4335;48.860;9.198;2023-04-24T07:43:22;17.80;99.90
8595;DHT22;4335;48.860;9.198;2023-04-24T07:45:49;18.50;99.90
8595;DHT22;4335;48.860;9.198;2023-04-24T07:48:22;18.60;99.90
8595;DHT22;4335;48.860;9.198;2023-04-24T07:50:55;18.00;99.90
8595;DHT22;4335;48.860;9.198;2023-04-24T07:53:22;17.30;99.90
8595;DHT22;4335;48.860;9.198;2023-04-24T07:55:51;16.60;99.90
8595;DHT22;4335;48.860;9.198;2023-04-24T07:58:23;16.10;99.90
8595;DHT22;4335;48.860;9.198;2023-04-24T08:03:34;15.20;99.90
8595;DHT22;4335;48.860;9.198;2023-04-24T08:06:07;15.00;99.90
8595;DHT22;4335;48.860;9.198;2023-04-24T08:08:33;16.10;99.90
8595;DHT22;4335;48.860;9.198;2023-04-24T08:11:00;16.60;99.90
8595;DHT22;4335;48.860;9.198;2023-04-24T08:13:30;16.60;99.90
8595;DHT22;4335;48.860;9.198;2023-04-24T08:16:02;17.00;99.90
8595;DHT22;4335;48.860;9.198;2023-04-24T08:18:35;17.80;99.90
8595;DHT22;4335;48.860;9.198;2023-04-24T08:21:02;18.70;99.90
8595;DHT22;4335;48.860;9.198;2023-04-24T08:23:47;18.80;99.90
8595;DHT22;4335;48.860;9.198;2023-04-24T08:26:16;18.60;99.90
8595;DHT22;4335;48.860;9.198;2023-04-24T08:28:47;18.10;99.90
8595;DHT22;4335;48.860;9.198;2023-04-24T08:31:13;17.50;99.90
8595;DHT22;4335;48.860;9.198;2023-04-24T08:33:40;17.40;99.90
8595;DHT22;4335;48.860;9.198;2023-04-24T08:36:10;17.70;99.90
8595;DHT22;4335;48.860;9.198;2023-04-24T08:38:39;18.30;99.90
8595;DHT22;4335;48.860;9.198;2023-04-24T08:41:14;19.20;99.90
8595;DHT22;4335;48.860;9.198;2023-04-24T08:43:46;19.90;98.10
8595;DHT22;4335;48.860;9.198;2023-04-24T08:46:17;19.70;95.70
8595;DHT22;4335;48.860;9.198;2023-04-24T08:48:45;19.80;94.90
8595;DHT22;4335;48.860;9.198;2023-04-24T08:51:12;19.40;94.60
8595;DHT22;4335;48.860;9.198;2023-04-24T08:53:39;18.50;94.40
8595;DHT22;4335;48.860;9.198;2023-04-24T08:56:06;17.10;94.80
8595;DHT22;4335;48.860;9.198;2023-04-24T08:58:36;16.70;96.10
8595;DHT22;4335;48.860;9.198;2023-04-24T09:01:04;16.50;97.00
8595;DHT22;4335;48.860;9.198;2023-04-24T09:03:31;16.30;98.00
8595;DHT22;4335;48.860;9.198;2023-04-24T09:05:59;15.60;98.80
8595;DHT22;4335;48.860;9.198;2023-04-24T09:08:30;15.60;99.90
8595;DHT22;4335;48.860;9.198;2023-04-24T09:10:57;16.20;99.20
8595;DHT22;4335;48.860;9.198;2023-04-24T09:13:24;16.00;99.30
8595;DHT22;4335;48.860;9.198;2023-04-24T09:15:54;17.00;99.30
8595;DHT22;4335;48.860;9.198;2023-04-24T09:18:31;18.60;96.50
8595;DHT22;4335;48.860;9.198;2023-04-24T09:21:00;18.90;94.20
8595;DHT22;4335;48.860;9.198;2023-04-24T09:23:30;18.40;94.70
8595;DHT22;4335;48.860;9.198;2023-04-24T09:25:58;17.40;96.00
8595;DHT22;4335;48.860;9.198;2023-04-24T09:28:33;16.10;97.50
8595;DHT22;4335;48.860;9.198;2023-04-24T09:31:06;15.40;99.40
8595;DHT22;4335;48.860;9.198;2023-04-24T09:33:34;14.70;99.90
8595;DHT22;4335;48.860;9.198;2023-04-24T09:36:04;14.10;99.90
8595;DHT22;4335;48.860;9.198;2023-04-24T09:38:33;14.20;99.90
8595;DHT22;4335;48.860;9.198;2023-04-24T09:41:01;14.30;99.90
8595;DHT22;4335;48.860;9.198;2023-04-24T09:43:35;14.50;99.90
8595;DHT22;4335;48.860;9.198;2023-04-24T09:46:06;15.40;99.90
8595;DHT22;4335;48.860;9.198;2023-04-24T09:48:35;17.60;99.90
8595;DHT22;4335;48.860;9.198;2023-04-24T09:51:03;19.80;96.60
8595;DHT22;4335;48.860;9.198;2023-04-24T09:53:32;21.70;92.20
8595;DHT22;4335;48.860;9.198;2023-04-24T09:56:03;21.80;90.30
8595;DHT22;4335;48.860;9.198;2023-04-24T09:58:35;20.60;88.80
8595;DHT22;4335;48.860;9.198;2023-04-24T10:01:02;18.30;91.00
8595;DHT22;4335;48.860;9.198;2023-04-24T10:03:33;17.40;93.80
8595;DHT22;4335;48.860;9.198;2023-04-24T10:06:01;18.40;93.50
8595;DHT22;4335;48.860;9.198;2023-04-24T10:08:34;20.00;91.00
8595;DHT22;4335;48.860;9.198;2023-04-24T10:11:00;21.60;87.60
8595;DHT22;4335;48.860;9.198;2023-04-24T10:13:30;23.00;80.70
8595;DHT22;4335;48.860;9.198;2023-04-24T10:16:10;23.70;76.30
8595;DHT22;4335;48.860;9.198;2023-04-24T10:18:40;24.10;72.50
8595;DHT22;4335;48.860;9.198;2023-04-24T10:21:11;24.00;67.60
8595;DHT22;4335;48.860;9.198;2023-04-24T10:23:38;23.10;67.50
8595;DHT22;4335;48.860;9.198;2023-04-24T10:26:09;20.80;70.90
8595;DHT22;4335;48.860;9.198;2023-04-24T10:28:47;19.50;74.60
8595;DHT22;4335;48.860;9.198;2023-04-24T10:31:14;18.20;78.00
8595;DHT22;4335;48.860;9.198;2023-04-24T10:33:56;17.00;82.50
8595;DHT22;4335;48.860;9.198;2023-04-24T10:36:24;16.40;87.60
8595;DHT22;4335;48.860;9.198;2023-04-24T10:38:56;15.90;90.50
8595;DHT22;4335;48.860;9.198;2023-04-24T10:41:25;15.20;92.20
8595;DHT22;4335;48.860;9.198;2023-04-24T10:44:07;14.80;93.50
8595;DHT22;4335;48.860;9.198;2023-04-24T10:46:46;14.60;94.50
8595;DHT22;4335;48.860;9.198;2023-04-24T10:49:28;14.40;95.30
8595;DHT22;4335;48.860;9.198;2023-04-24T10:52:01;14.20;95.60
8595;DHT22;4335;48.860;9.198;2023-04-24T10:54:35;14.00;96.30
8595;DHT22;4335;48.860;9.198;2023-04-24T10:57:30;13.90;97.40
8595;DHT22;4335;48.860;9.198;2023-04-24T11:00:15;14.00;98.00
8595;DHT22;4335;48.860;9.198;2023-04-24T11:02:48;14.20;98.70
8595;DHT22;4335;48.860;9.198;2023-04-24T11:05:17;14.30;99.50
8595;DHT22;4335;48.860;9.198;2023-04-24T11:08:15;14.40;98.90
8595;DHT22;4335;48.860;9.198;2023-04-24T11:10:45;14.50;98.60
8595;DHT22;4335;48.860;9.198;2023-04-24T11:13:16;14.70;98.80
8595;DHT22;4335;48.860;9.198;2023-04-24T11:15:43;15.20;99.30
8595;DHT22;4335;48.860;9.198;2023-04-24T11:18:13;15.50;98.80
8595;DHT22;4335;48.860;9.198;2023-04-24T11:20:43;15.20;98.60
8595;DHT22;4335;48.860;9.198;2023-04-24T11:23:12;15.10;98.00
8595;DHT22;4335;48.860;9.198;2023-04-24T11:25:45;15.30;97.70
8595;DHT22;4335;48.860;9.198;2023-04-24T11:28:32;15.30;98.10
8595;DHT22;4335;48.860;9.198;2023-04-24T11:30:58;15.60;98.20
8595;DHT22;4335;48.860;9.198;2023-04-24T11:33:25;15.80;98.30
8595;DHT22;4335;48.860;9.198;2023-04-24T11:35:55;16.10;97.20
8595;DHT22;4335;48.860;9.198;2023-04-24T11:38:22;16.20;97.20
8595;DHT22;4335;48.860;9.198;2023-04-24T11:40:49;16.00;96.60
8595;DHT22;4335;48.860;9.198;2023-04-24T11:43:21;15.90;97.20
8595;DHT22;4335;48.860;9.198;2023-04-24T11:45:51;15.60;96.60
8595;DHT22;4335;48.860;9.198;2023-04-24T11:48:19;15.50;97.40
8595;DHT22;4335;48.860;9.198;2023-04-24T11:50:46;15.40;98.00
8595;DHT22;4335;48.860;9.198;2023-04-24T11:53:18;15.10;99.70
8595;DHT22;4335;48.860;9.198;2023-04-24T11:55:44;14.60;99.90
8595;DHT22;4335;48.860;9.198;2023-04-24T11:58:11;14.50;99.90
8595;DHT22;4335;48.860;9.198;2023-04-24T12:00:37;14.30;99.90
8595;DHT22;4335;48.860;9.198;2023-04-24T12:03:08;14.30;99.90
8595;DHT22;4335;48.860;9.198;2023-04-24T12:05:35;14.40;99.90
8595;DHT22;4335;48.860;9.198;2023-04-24T12:08:02;14.60;99.90
8595;DHT22;4335;48.860;9.198;2023-04-24T12:10:32;14.80;99.90
8595;DHT22;4335;48.860;9.198;2023-04-24T12:13:00;14.80;99.90
8595;DHT22;4335;48.860;9.198;2023-04-24T12:15:27;14.80;99.90
8595;DHT22;4335;48.860;9.198;2023-04-24T12:17:57;14.70;99.90
8595;DHT22;4335;48.860;9.198;2023-04-24T12:20:25;14.70;99.90
8595;DHT22;4335;48.860;9.198;2023-04-24T12:22:55;14.50;99.90
8595;DHT22;4335;48.860;9.198;2023-04-24T12:25:24;14.40;99.90
8595;DHT22;4335;48.860;9.198;2023-04-24T12:27:57;14.30;99.90
8595;DHT22;4335;48.860;9.198;2023-04-24T12:30:41;14.10;99.90
8595;DHT22;4335;48.860;9.198;2023-04-24T12:33:16;14.00;99.90
8595;DHT22;4335;48.860;9.198;2023-04-24T12:35:43;14.20;99.90
8595;DHT22;4335;48.860;9.198;2023-04-24T12:38:11;14.30;99.90
8595;DHT22;4335;48.860;9.198;2023-04-24T12:40:42;14.20;99.90
8595;DHT22;4335;48.860;9.198;2023-04-24T12:43:16;14.10;99.90
8595;DHT22;4335;48.860;9.198;2023-04-24T12:45:43;14.10;99.90
8595;DHT22;4335;48.860;9.198;2023-04-24T12:48:10;14.10;99.90
8595;DHT22;4335;48.860;9.198;2023-04-24T12:50:38;14.10;99.90
8595;DHT22;4335;48.860;9.198;2023-04-24T12:53:05;14.20;99.90
8595;DHT22;4335;48.860;9.198;2023-04-24T12:55:32;14.20;99.90
8595;DHT22;4335;48.860;9.198;2023-04-24T12:58:05;14.30;99.90
8595;DHT22;4335;48.860;9.198;2023-04-24T13:00:32;14.40;99.90
8595;DHT22;4335;48.860;9.198;2023-04-24T13:03:08;14.20;99.90
8595;DHT22;4335;48.860;9.198;2023-04-24T13:05:35;13.90;99.90
8595;DHT22;4335;48.860;9.198;2023-04-24T13:08:05;13.70;99.90
8595;DHT22;4335;48.860;9.198;2023-04-24T13:10:40;13.70;99.90
8595;DHT22;4335;48.860;9.198;2023-04-24T13:13:07;13.70;99.90
8595;DHT22;4335;48.860;9.198;2023-04-24T13:15:38;13.80;99.90
8595;DHT22;4335;48.860;9.198;2023-04-24T13:18:10;13.80;99.90
8595;DHT22;4335;48.860;9.198;2023-04-24T13:20:43;13.60;99.90
8595;DHT22;4335;48.860;9.198;2023-04-24T13:23:11;13.60;99.90
8595;DHT22;4335;48.860;9.198;2023-04-24T13:25:41;13.50;99.90
8595;DHT22;4335;48.860;9.198;2023-04-24T13:28:13;13.60;99.90
8595;DHT22;4335;48.860;9.198;2023-04-24T13:30:43;13.60;99.90
8595;DHT22;4335;48.860;9.198;2023-04-24T13:33:23;13.80;99.90
8595;DHT22;4335;48.860;9.198;2023-04-24T13:35:58;13.90;99.90
8595;DHT22;4335;48.860;9.198;2023-04-24T13:38:28;14.00;99.90
8595;DHT22;4335;48.860;9.198;2023-04-24T13:40:57;14.20;99.90
8595;DHT22;4335;48.860;9.198;2023-04-24T13:43:26;14.30;99.90
8595;DHT22;4335;48.860;9.198;2023-04-24T13:45:53;14.20;99.90
8595;DHT22;4335;48.860;9.198;2023-04-24T13:48:26;14.20;99.90
8595;DHT22;4335;48.860;9.198;2023-04-24T13:50:58;14.20;99.90
8595;DHT22;4335;48.860;9.198;2023-04-24T13:53:28;14.10;99.90
8595;DHT22;4335;48.860;9.198;2023-04-24T13:55:57;14.00;99.90
8595;DHT22;4335;48.860;9.198;2023-04-24T13:58:30;14.00;99.90
8595;DHT22;4335;48.860;9.198;2023-04-24T14:00:59;14.00;99.90
8595;DHT22;4335;48.860;9.198;2023-04-24T14:03:25;13.90;99.90
8595;DHT22;4335;48.860;9.198;2023-04-24T14:05:55;13.70;99.90
8595;DHT22;4335;48.860;9.198;2023-04-24T14:08:25;13.60;99.90
8595;DHT22;4335;48.860;9.198;2023-04-24T14:10:51;13.50;99.90
8595;DHT22;4335;48.860;9.198;2023-04-24T14:13:21;13.40;99.90
8595;DHT22;4335;48.860;9.198;2023-04-24T14:15:51;13.50;99.90
8595;DHT22;4335;48.860;9.198;2023-04-24T14:18:19;13.60;99.90
8595;DHT22;4335;48.860;9.198;2023-04-24T14:20:46;13.40;99.90
8595;DHT22;4335;48.860;9.198;2023-04-24T14:23:21;13.50;99.90
8595;DHT22;4335;48.860;9.198;2023-04-24T14:25:48;13.40;99.90
8595;DHT22;4335;48.860;9.198;2023-04-24T14:28:20;13.40;99.90
8595;DHT22;4335;48.860;9.198;2023-04-24T14:30:47;13.50;99.90
8595;DHT22;4335;48.860;9.198;2023-04-24T14:33:30;13.60;99.90
8595;DHT22;4335;48.860;9.198;2023-04-24T14:35:57;13.80;99.90
8595;DHT22;4335;48.860;9.198;2023-04-24T14:38:24;13.90;99.90
8595;DHT22;4335;48.860;9.198;2023-04-24T14:40:56;14.00;99.90
8595;DHT22;4335;48.860;9.198;2023-04-24T14:43:29;14.10;99.90
8595;DHT22;4335;48.860;9.198;2023-04-24T14:45:59;14.20;99.90
8595;DHT22;4335;48.860;9.198;2023-04-24T14:48:26;14.10;99.90
8595;DHT22;4335;48.860;9.198;2023-04-24T14:50:56;13.90;99.90
8595;DHT22;4335;48.860;9.198;2023-04-24T14:53:23;14.00;99.90
8595;DHT22;4335;48.860;9.198;2023-04-24T14:55:50;13.80;99.90
8595;DHT22;4335;48.860;9.198;2023-04-24T14:58:18;13.70;99.90
8595;DHT22;4335;48.860;9.198;2023-04-24T15:00:45;13.60;99.90
8595;DHT22;4335;48.860;9.198;2023-04-24T15:03:14;13.60;99.90
8595;DHT22;4335;48.860;9.198;2023-04-24T15:05:41;13.40;99.90
8595;DHT22;4335;48.860;9.198;2023-04-24T15:08:09;13.50;99.90
8595;DHT22;4335;48.860;9.198;2023-04-24T15:10:35;13.50;99.90
8595;DHT22;4335;48.860;9.198;2023-04-24T15:13:02;13.60;99.90
8595;DHT22;4335;48.860;9.198;2023-04-24T15:15:41;13.50;99.90
8595;DHT22;4335;48.860;9.198;2023-04-24T15:18:10;13.40;99.90
8595;DHT22;4335;48.860;9.198;2023-04-24T15:20:37;13.40;99.90
8595;DHT22;4335;48.860;9.198;2023-04-24T15:23:09;13.30;99.90
8595;DHT22;4335;48.860;9.198;2023-04-24T15:25:38;13.20;99.90
8595;DHT22;4335;48.860;9.198;2023-04-24T15:28:14;13.20;99.90
8595;DHT22;4335;48.860;9.198;2023-04-24T15:30:41;13.20;99.90
8595;DHT22;4335;48.860;9.198;2023-04-24T15:33:08;13.30;99.90
8595;DHT22;4335;48.860;9.198;2023-04-24T15:38:57;13.30;99.90
8595;DHT22;4335;48.860;9.198;2023-04-24T15:41:24;13.30;99.90
8595;DHT22;4335;48.860;9.198;2023-04-24T15:43:57;13.30;99.90
8595;DHT22;4335;48.860;9.198;2023-04-24T15:46:24;13.40;99.90
8595;DHT22;4335;48.860;9.198;2023-04-24T15:48:51;13.30;99.90
8595;DHT22;4335;48.860;9.198;2023-04-24T15:51:20;13.40;99.90
8595;DHT22;4335;48.860;9.198;2023-04-24T15:53:46;13.40;99.90
8595;DHT22;4335;48.860;9.198;2023-04-24T15:56:20;13.20;99.90
8595;DHT22;4335;48.860;9.198;2023-04-24T15:58:47;13.30;99.90
8595;DHT22;4335;48.860;9.198;2023-04-24T16:01:13;13.40;99.90
8595;DHT22;4335;48.860;9.198;2023-04-24T16:03:43;13.50;99.90
8595;DHT22;4335;48.860;9.198;2023-04-24T16:06:11;13.50;99.90
8595;DHT22;4335;48.860;9.198;2023-04-24T16:08:41;13.50;99.90
8595;DHT22;4335;48.860;9.198;2023-04-24T16:11:08;13.40;99.90
8595;DHT22;4335;48.860;9.198;2023-04-24T16:13:36;13.30;99.90
8595;DHT22;4335;48.860;9.198;2023-04-24T16:16:02;13.30;99.90
8595;DHT22;4335;48.860;9.198;2023-04-24T16:18:29;13.30;99.90
8595;DHT22;4335;48.860;9.198;2023-04-24T16:20:56;13.30;99.90
8595;DHT22;4335;48.860;9.198;2023-04-24T16:23:32;13.30;99.90